sensor_id;sensor_type;location;lat;lon;timestamp;temperature;humidity
63051;SHT30;49136;47.416;19.402;2022-08-04T00:00:44;20.77;74.02
63051;SHT30;49136;47.416;19.402;2022-08-04T00:03:27;20.90;73.25
63051;SHT30;49136;47.416;19.402;2022-08-04T00:06:11;20.83;73.36
63051;SHT30;49136;47.416;19.402;2022-08-04T00:08:48;20.82;73.45
63051;SHT30;49136;47.416;19.402;2022-08-04T00:11:26;20.92;72.87
63051;SHT30;49136;47.416;19.402;2022-08-04T00:14:01;20.93;73.09
63051;SHT30;49136;47.416;19.402;2022-08-04T00:16:29;20.75;73.50
63051;SHT30;49136;47.416;19.402;2022-08-04T00:19:00;20.77;73.32
63051;SHT30;49136;47.416;19.402;2022-08-04T00:21:28;20.85;73.28
63051;SHT30;49136;47.416;19.402;2022-08-04T00:23:56;20.75;73.63
63051;SHT30;49136;47.416;19.402;2022-08-04T00:26:23;20.71;73.57
63051;SHT30;49136;47.416;19.402;2022-08-04T00:28:50;20.68;73.72
63051;SHT30;49136;47.416;19.402;2022-08-04T00:31:15;20.76;73.44
63051;SHT30;49136;47.416;19.402;2022-08-04T00:33:45;20.73;73.68
63051;SHT30;49136;47.416;19.402;2022-08-04T00:36:11;20.76;73.26
63051;SHT30;49136;47.416;19.402;2022-08-04T00:38:39;20.61;74.04
63051;SHT30;49136;47.416;19.402;2022-08-04T00:49:30;20.71;73.13
63051;SHT30;49136;47.416;19.402;2022-08-04T00:57:29;20.53;73.45
63051;SHT30;49136;47.416;19.402;2022-08-04T01:00:10;20.58;73.57
63051;SHT30;49136;47.416;19.402;2022-08-04T01:16:02;20.21;74.76
63051;SHT30;49136;47.416;19.402;2022-08-04T01:21:36;20.16;74.73
63051;SHT30;49136;47.416;19.402;2022-08-04T01:24:29;20.07;75.08
63051;SHT30;49136;47.416;19.402;2022-08-04T01:27:03;20.09;74.61
63051;SHT30;49136;47.416;19.402;2022-08-04T01:29:33;20.07;74.84
63051;SHT30;49136;47.416;19.402;2022-08-04T01:32:07;20.05;74.76
63051;SHT30;49136;47.416;19.402;2022-08-04T01:34:41;19.94;75.52
63051;SHT30;49136;47.416;19.402;2022-08-04T01:37:12;20.03;74.80
63051;SHT30;49136;47.416;19.402;2022-08-04T01:39:49;20.01;74.80
63051;SHT30;49136;47.416;19.402;2022-08-04T01:42:17;19.93;74.97
63051;SHT30;49136;47.416;19.402;2022-08-04T01:44:47;19.92;74.91
63051;SHT30;49136;47.416;19.402;2022-08-04T01:47:13;19.85;75.01
63051;SHT30;49136;47.416;19.402;2022-08-04T01:49:42;19.96;74.67
63051;SHT30;49136;47.416;19.402;2022-08-04T01:52:15;19.99;74.54
63051;SHT30;49136;47.416;19.402;2022-08-04T01:54:41;19.94;74.42
63051;SHT30;49136;47.416;19.402;2022-08-04T01:57:09;19.90;74.80
63051;SHT30;49136;47.416;19.402;2022-08-04T01:59:37;19.82;75.01
63051;SHT30;49136;47.416;19.402;2022-08-04T02:02:06;19.83;74.94
63051;SHT30;49136;47.416;19.402;2022-08-04T02:04:32;19.81;74.88
63051;SHT30;49136;47.416;19.402;2022-08-04T02:10:06;19.74;75.01
63051;SHT30;49136;47.416;19.402;2022-08-04T02:12:51;19.74;74.79
63051;SHT30;49136;47.416;19.402;2022-08-04T02:18:02;19.71;75.04
63051;SHT30;49136;47.416;19.402;2022-08-04T02:20:32;19.61;74.88
63051;SHT30;49136;47.416;19.402;2022-08-04T02:23:07;19.72;74.41
63051;SHT30;49136;47.416;19.402;2022-08-04T02:25:40;19.69;73.81
63051;SHT30;49136;47.416;19.402;2022-08-04T02:30:42;19.75;73.87
63051;SHT30;49136;47.416;19.402;2022-08-04T02:33:12;19.68;74.04
63051;SHT30;49136;47.416;19.402;2022-08-04T02:35:38;19.55;74.84
63051;SHT30;49136;47.416;19.402;2022-08-04T02:38:15;19.59;74.02
63051;SHT30;49136;47.416;19.402;2022-08-04T02:40:43;19.61;73.74
63051;SHT30;49136;47.416;19.402;2022-08-04T02:43:10;19.75;73.06
63051;SHT30;49136;47.416;19.402;2022-08-04T02:45:40;20.03;71.90
63051;SHT30;49136;47.416;19.402;2022-08-04T02:48:07;19.89;72.53
63051;SHT30;49136;47.416;19.402;2022-08-04T02:50:34;19.82;72.39
63051;SHT30;49136;47.416;19.402;2022-08-04T02:53:02;19.86;72.26
63051;SHT30;49136;47.416;19.402;2022-08-04T02:55:28;19.96;71.87
63051;SHT30;49136;47.416;19.402;2022-08-04T02:57:56;19.86;71.97
63051;SHT30;49136;47.416;19.402;2022-08-04T03:00:22;19.79;72.31
63051;SHT30;49136;47.416;19.402;2022-08-04T03:03:11;19.75;72.56
63051;SHT30;49136;47.416;19.402;2022-08-04T03:05:50;19.76;72.54
63051;SHT30;49136;47.416;19.402;2022-08-04T03:14:47;19.69;72.37
63051;SHT30;49136;47.416;19.402;2022-08-04T03:42:42;19.22;74.32
63051;SHT30;49136;47.416;19.402;2022-08-04T03:54:31;19.30;73.98
63051;SHT30;49136;47.416;19.402;2022-08-04T04:13:06;19.51;74.15
63051;SHT30;49136;47.416;19.402;2022-08-04T04:18:19;19.68;72.96
63051;SHT30;49136;47.416;19.402;2022-08-04T04:26:05;19.86;72.97
63051;SHT30;49136;47.416;19.402;2022-08-04T04:33:36;20.06;72.52
63051;SHT30;49136;47.416;19.402;2022-08-04T04:36:10;20.17;72.50
63051;SHT30;49136;47.416;19.402;2022-08-04T04:38:45;20.21;72.36
63051;SHT30;49136;47.416;19.402;2022-08-04T04:43:47;20.40;71.78
63051;SHT30;49136;47.416;19.402;2022-08-04T04:46:35;20.44;71.45
63051;SHT30;49136;47.416;19.402;2022-08-04T04:49:16;20.56;71.73
63051;SHT30;49136;47.416;19.402;2022-08-04T04:51:53;20.69;70.65
63051;SHT30;49136;47.416;19.402;2022-08-04T04:57:16;20.93;70.06
63051;SHT30;49136;47.416;19.402;2022-08-04T04:59:49;20.97;71.59
63051;SHT30;49136;47.416;19.402;2022-08-04T05:02:44;21.06;70.22
63051;SHT30;49136;47.416;19.402;2022-08-04T05:05:37;21.28;69.66
63051;SHT30;49136;47.416;19.402;2022-08-04T05:13:37;21.98;66.95
63051;SHT30;49136;47.416;19.402;2022-08-04T05:16:19;22.32;66.14
63051;SHT30;49136;47.416;19.402;2022-08-04T05:19:02;22.59;65.33
63051;SHT30;49136;47.416;19.402;2022-08-04T05:21:47;22.76;63.88
63051;SHT30;49136;47.416;19.402;2022-08-04T05:24:14;23.12;64.01
63051;SHT30;49136;47.416;19.402;2022-08-04T05:26:47;23.16;62.84
63051;SHT30;49136;47.416;19.402;2022-08-04T05:29:26;23.39;62.32
63051;SHT30;49136;47.416;19.402;2022-08-04T05:31:54;23.70;61.19
63051;SHT30;49136;47.416;19.402;2022-08-04T05:34:23;24.00;60.71
63051;SHT30;49136;47.416;19.402;2022-08-04T05:36:54;24.05;59.99
63051;SHT30;49136;47.416;19.402;2022-08-04T05:39:23;24.39;60.29
63051;SHT30;49136;47.416;19.402;2022-08-04T05:41:49;24.35;58.88
63051;SHT30;49136;47.416;19.402;2022-08-04T05:44:16;24.47;58.68
63051;SHT30;49136;47.416;19.402;2022-08-04T05:46:44;24.63;58.05
63051;SHT30;49136;47.416;19.402;2022-08-04T05:49:11;24.78;56.98
63051;SHT30;49136;47.416;19.402;2022-08-04T05:51:37;24.98;57.13
63051;SHT30;49136;47.416;19.402;2022-08-04T05:54:04;25.36;56.60
63051;SHT30;49136;47.416;19.402;2022-08-04T05:56:30;25.39;55.11
63051;SHT30;49136;47.416;19.402;2022-08-04T05:58:59;25.43;55.69
63051;SHT30;49136;47.416;19.402;2022-08-04T06:01:27;25.64;54.33
63051;SHT30;49136;47.416;19.402;2022-08-04T06:03:55;25.86;55.06
63051;SHT30;49136;47.416;19.402;2022-08-04T06:06:21;25.91;55.48
63051;SHT30;49136;47.416;19.402;2022-08-04T06:08:47;26.10;54.97
63051;SHT30;49136;47.416;19.402;2022-08-04T06:11:13;26.39;53.48
63051;SHT30;49136;47.416;19.402;2022-08-04T06:13:43;25.92;53.20
63051;SHT30;49136;47.416;19.402;2022-08-04T06:16:13;26.62;53.83
63051;SHT30;49136;47.416;19.402;2022-08-04T06:18:42;26.61;54.00
63051;SHT30;49136;47.416;19.402;2022-08-04T06:21:10;27.04;51.26
63051;SHT30;49136;47.416;19.402;2022-08-04T06:23:38;27.10;49.75
63051;SHT30;49136;47.416;19.402;2022-08-04T06:26:05;26.76;50.00
63051;SHT30;49136;47.416;19.402;2022-08-04T06:28:31;26.99;52.53
63051;SHT30;49136;47.416;19.402;2022-08-04T06:30:57;27.44;50.28
63051;SHT30;49136;47.416;19.402;2022-08-04T06:33:29;27.85;50.66
63051;SHT30;49136;47.416;19.402;2022-08-04T06:36:00;27.40;51.32
63051;SHT30;49136;47.416;19.402;2022-08-04T06:38:27;27.76;49.91
63051;SHT30;49136;47.416;19.402;2022-08-04T06:40:54;27.71;50.10
63051;SHT30;49136;47.416;19.402;2022-08-04T06:43:23;27.63;49.27
63051;SHT30;49136;47.416;19.402;2022-08-04T06:45:49;27.82;50.48
63051;SHT30;49136;47.416;19.402;2022-08-04T06:48:17;27.90;48.13
63051;SHT30;49136;47.416;19.402;2022-08-04T06:50:46;27.75;48.97
63051;SHT30;49136;47.416;19.402;2022-08-04T06:53:12;27.86;48.75
63051;SHT30;49136;47.416;19.402;2022-08-04T06:55:39;27.76;48.28
63051;SHT30;49136;47.416;19.402;2022-08-04T06:58:05;27.93;47.95
63051;SHT30;49136;47.416;19.402;2022-08-04T07:00:33;28.06;49.29
63051;SHT30;49136;47.416;19.402;2022-08-04T07:02:59;28.28;47.57
63051;SHT30;49136;47.416;19.402;2022-08-04T07:05:25;28.17;47.19
63051;SHT30;49136;47.416;19.402;2022-08-04T07:07:51;28.13;47.18
63051;SHT30;49136;47.416;19.402;2022-08-04T07:10:17;28.49;46.65
63051;SHT30;49136;47.416;19.402;2022-08-04T07:12:42;28.37;46.04
63051;SHT30;49136;47.416;19.402;2022-08-04T07:15:09;28.54;48.11
63051;SHT30;49136;47.416;19.402;2022-08-04T07:17:35;28.93;49.46
63051;SHT30;49136;47.416;19.402;2022-08-04T07:20:03;28.40;46.02
63051;SHT30;49136;47.416;19.402;2022-08-04T07:22:30;28.62;46.34
63051;SHT30;49136;47.416;19.402;2022-08-04T07:24:56;28.86;45.72
63051;SHT30;49136;47.416;19.402;2022-08-04T07:27:23;28.95;45.00
63051;SHT30;49136;47.416;19.402;2022-08-04T07:29:49;29.04;45.34
63051;SHT30;49136;47.416;19.402;2022-08-04T07:32:15;29.13;48.30
63051;SHT30;49136;47.416;19.402;2022-08-04T07:34:41;28.93;46.21
63051;SHT30;49136;47.416;19.402;2022-08-04T07:37:07;29.03;49.54
63051;SHT30;49136;47.416;19.402;2022-08-04T07:39:34;28.97;44.87
63051;SHT30;49136;47.416;19.402;2022-08-04T07:42:02;29.02;45.37
63051;SHT30;49136;47.416;19.402;2022-08-04T07:44:31;28.78;45.12
63051;SHT30;49136;47.416;19.402;2022-08-04T07:46:59;28.96;45.01
63051;SHT30;49136;47.416;19.402;2022-08-04T07:49:24;28.83;44.52
63051;SHT30;49136;47.416;19.402;2022-08-04T07:51:51;29.37;44.67
63051;SHT30;49136;47.416;19.402;2022-08-04T07:54:18;29.42;43.83
63051;SHT30;49136;47.416;19.402;2022-08-04T07:56:43;29.34;43.66
63051;SHT30;49136;47.416;19.402;2022-08-04T07:59:09;29.35;44.63
63051;SHT30;49136;47.416;19.402;2022-08-04T08:01:35;29.18;43.11
63051;SHT30;49136;47.416;19.402;2022-08-04T08:04:02;29.86;44.33
63051;SHT30;49136;47.416;19.402;2022-08-04T08:06:29;29.74;42.96
63051;SHT30;49136;47.416;19.402;2022-08-04T08:08:55;29.56;44.17
63051;SHT30;49136;47.416;19.402;2022-08-04T08:11:21;29.63;43.63
63051;SHT30;49136;47.416;19.402;2022-08-04T08:13:46;29.76;41.91
63051;SHT30;49136;47.416;19.402;2022-08-04T08:16:12;29.93;42.84
63051;SHT30;49136;47.416;19.402;2022-08-04T08:18:38;30.11;44.38
63051;SHT30;49136;47.416;19.402;2022-08-04T08:21:03;30.29;43.42
63051;SHT30;49136;47.416;19.402;2022-08-04T08:23:30;30.39;42.75
63051;SHT30;49136;47.416;19.402;2022-08-04T08:25:56;30.29;43.00
63051;SHT30;49136;47.416;19.402;2022-08-04T08:28:23;30.49;42.40
63051;SHT30;49136;47.416;19.402;2022-08-04T08:30:49;30.48;45.12
63051;SHT30;49136;47.416;19.402;2022-08-04T08:33:16;30.76;48.06
63051;SHT30;49136;47.416;19.402;2022-08-04T08:38:28;30.48;43.80
63051;SHT30;49136;47.416;19.402;2022-08-04T08:44:28;30.83;43.22
63051;SHT30;49136;47.416;19.402;2022-08-04T08:49:45;30.43;41.11
63051;SHT30;49136;47.416;19.402;2022-08-04T08:58:53;31.35;47.72
63051;SHT30;49136;47.416;19.402;2022-08-04T09:01:25;31.42;41.50
63051;SHT30;49136;47.416;19.402;2022-08-04T09:09:52;31.17;40.00
63051;SHT30;49136;47.416;19.402;2022-08-04T09:12:32;31.49;43.93
63051;SHT30;49136;47.416;19.402;2022-08-04T09:15:11;31.91;41.54
63051;SHT30;49136;47.416;19.402;2022-08-04T09:18:11;31.21;40.78
63051;SHT30;49136;47.416;19.402;2022-08-04T09:20:47;31.36;41.61
63051;SHT30;49136;47.416;19.402;2022-08-04T09:23:40;31.42;40.06
63051;SHT30;49136;47.416;19.402;2022-08-04T09:26:14;31.81;43.87
63051;SHT30;49136;47.416;19.402;2022-08-04T09:28:52;31.59;42.49
63051;SHT30;49136;47.416;19.402;2022-08-04T09:31:31;32.02;44.95
63051;SHT30;49136;47.416;19.402;2022-08-04T09:34:06;32.32;43.20
63051;SHT30;49136;47.416;19.402;2022-08-04T09:36:43;32.52;41.66
63051;SHT30;49136;47.416;19.402;2022-08-04T09:47:09;32.88;40.82
63051;SHT30;49136;47.416;19.402;2022-08-04T09:52:20;32.61;40.42
63051;SHT30;49136;47.416;19.402;2022-08-04T09:54:58;32.95;38.93
63051;SHT30;49136;47.416;19.402;2022-08-04T09:57:48;33.08;39.98
63051;SHT30;49136;47.416;19.402;2022-08-04T10:00:16;33.04;44.81
63051;SHT30;49136;47.416;19.402;2022-08-04T10:02:57;32.64;39.97
63051;SHT30;49136;47.416;19.402;2022-08-04T10:05:28;32.70;38.55
63051;SHT30;49136;47.416;19.402;2022-08-04T10:08:16;31.65;39.48
63051;SHT30;49136;47.416;19.402;2022-08-04T10:10:55;31.91;39.13
63051;SHT30;49136;47.416;19.402;2022-08-04T10:18:49;31.97;39.18
63051;SHT30;49136;47.416;19.402;2022-08-04T10:21:40;32.37;42.50
63051;SHT30;49136;47.416;19.402;2022-08-04T10:27:15;33.37;43.02
63051;SHT30;49136;47.416;19.402;2022-08-04T10:29:44;33.70;40.80
63051;SHT30;49136;47.416;19.402;2022-08-04T10:32:18;33.56;39.05
63051;SHT30;49136;47.416;19.402;2022-08-04T10:34:59;33.07;41.15
63051;SHT30;49136;47.416;19.402;2022-08-04T10:37:40;33.45;40.49
63051;SHT30;49136;47.416;19.402;2022-08-04T10:40:19;33.77;41.10
63051;SHT30;49136;47.416;19.402;2022-08-04T10:45:45;34.20;39.61
63051;SHT30;49136;47.416;19.402;2022-08-04T10:54:06;33.11;40.09
63051;SHT30;49136;47.416;19.402;2022-08-04T10:56:40;33.56;38.50
63051;SHT30;49136;47.416;19.402;2022-08-04T10:59:31;34.12;38.99
63051;SHT30;49136;47.416;19.402;2022-08-04T11:02:11;34.50;37.68
63051;SHT30;49136;47.416;19.402;2022-08-04T11:04:46;34.70;38.99
63051;SHT30;49136;47.416;19.402;2022-08-04T11:07:14;34.99;37.42
63051;SHT30;49136;47.416;19.402;2022-08-04T11:09:43;34.98;37.59
63051;SHT30;49136;47.416;19.402;2022-08-04T11:12:15;34.70;40.79
63051;SHT30;49136;47.416;19.402;2022-08-04T11:15:02;34.56;39.10
63051;SHT30;49136;47.416;19.402;2022-08-04T11:17:35;34.94;39.16
63051;SHT30;49136;47.416;19.402;2022-08-04T11:22:40;35.46;37.39
63051;SHT30;49136;47.416;19.402;2022-08-04T11:25:21;35.51;37.82
63051;SHT30;49136;47.416;19.402;2022-08-04T11:33:36;35.63;36.14
63051;SHT30;49136;47.416;19.402;2022-08-04T11:41:09;34.60;37.35
63051;SHT30;49136;47.416;19.402;2022-08-04T11:43:55;34.91;39.77
63051;SHT30;49136;47.416;19.402;2022-08-04T11:46:31;35.33;38.71
63051;SHT30;49136;47.416;19.402;2022-08-04T11:49:05;35.36;39.09
63051;SHT30;49136;47.416;19.402;2022-08-04T11:51:32;34.85;36.48
63051;SHT30;49136;47.416;19.402;2022-08-04T11:53:59;35.12;38.28
63051;SHT30;49136;47.416;19.402;2022-08-04T11:56:25;35.19;38.11
63051;SHT30;49136;47.416;19.402;2022-08-04T11:58:51;35.16;36.59
63051;SHT30;49136;47.416;19.402;2022-08-04T12:01:27;35.09;37.68
63051;SHT30;49136;47.416;19.402;2022-08-04T12:04:04;35.20;39.48
63051;SHT30;49136;47.416;19.402;2022-08-04T12:06:48;35.29;39.89
63051;SHT30;49136;47.416;19.402;2022-08-04T12:09:30;35.44;36.97
63051;SHT30;49136;47.416;19.402;2022-08-04T12:15:17;34.06;36.07
63051;SHT30;49136;47.416;19.402;2022-08-04T12:18:06;33.90;36.14
63051;SHT30;49136;47.416;19.402;2022-08-04T12:20:41;33.11;37.64
63051;SHT30;49136;47.416;19.402;2022-08-04T12:23:16;32.77;38.77
63051;SHT30;49136;47.416;19.402;2022-08-04T12:25:45;32.61;41.31
63051;SHT30;49136;47.416;19.402;2022-08-04T12:28:35;32.50;39.44
63051;SHT30;49136;47.416;19.402;2022-08-04T12:31:04;32.46;39.37
63051;SHT30;49136;47.416;19.402;2022-08-04T12:34:34;32.46;38.96
63051;SHT30;49136;47.416;19.402;2022-08-04T12:36:46;32.49;42.97
63051;SHT30;49136;47.416;19.402;2022-08-04T12:39:17;33.07;39.44
63051;SHT30;49136;47.416;19.402;2022-08-04T12:42:14;32.85;44.87
63051;SHT30;49136;47.416;19.402;2022-08-04T12:44:42;32.17;42.90
63051;SHT30;49136;47.416;19.402;2022-08-04T12:47:11;32.02;42.75
63051;SHT30;49136;47.416;19.402;2022-08-04T12:49:38;32.25;42.86
63051;SHT30;49136;47.416;19.402;2022-08-04T12:52:07;31.67;42.01
63051;SHT30;49136;47.416;19.402;2022-08-04T12:54:35;31.76;39.51
63051;SHT30;49136;47.416;19.402;2022-08-04T12:57:05;32.57;41.57
63051;SHT30;49136;47.416;19.402;2022-08-04T12:59:42;33.11;38.20
63051;SHT30;49136;47.416;19.402;2022-08-04T13:02:15;33.80;39.45
63051;SHT30;49136;47.416;19.402;2022-08-04T13:04:44;33.97;39.53
63051;SHT30;49136;47.416;19.402;2022-08-04T13:07:15;34.47;39.79
63051;SHT30;49136;47.416;19.402;2022-08-04T13:09:43;34.88;39.64
63051;SHT30;49136;47.416;19.402;2022-08-04T13:12:21;35.22;39.97
63051;SHT30;49136;47.416;19.402;2022-08-04T13:14:50;35.55;39.06
63051;SHT30;49136;47.416;19.402;2022-08-04T13:17:16;35.58;37.39
63051;SHT30;49136;47.416;19.402;2022-08-04T13:19:48;34.98;36.14
63051;SHT30;49136;47.416;19.402;2022-08-04T13:22:26;34.46;39.27
63051;SHT30;49136;47.416;19.402;2022-08-04T13:24:54;34.43;37.57
63051;SHT30;49136;47.416;19.402;2022-08-04T13:27:22;34.87;36.69
63051;SHT30;49136;47.416;19.402;2022-08-04T13:29:49;35.37;37.44
63051;SHT30;49136;47.416;19.402;2022-08-04T13:32:19;35.08;36.61
63051;SHT30;49136;47.416;19.402;2022-08-04T13:34:48;35.46;37.97
63051;SHT30;49136;47.416;19.402;2022-08-04T13:37:14;35.91;37.24
63051;SHT30;49136;47.416;19.402;2022-08-04T13:39:45;36.02;36.51
63051;SHT30;49136;47.416;19.402;2022-08-04T13:42:13;35.82;35.47
63051;SHT30;49136;47.416;19.402;2022-08-04T13:44:40;35.13;34.73
63051;SHT30;49136;47.416;19.402;2022-08-04T13:47:09;34.88;36.58
63051;SHT30;49136;47.416;19.402;2022-08-04T13:49:36;34.19;35.98
63051;SHT30;49136;47.416;19.402;2022-08-04T13:52:03;34.35;35.69
63051;SHT30;49136;47.416;19.402;2022-08-04T13:54:40;34.37;37.19
63051;SHT30;49136;47.416;19.402;2022-08-04T13:57:19;34.26;37.44
63051;SHT30;49136;47.416;19.402;2022-08-04T13:59:53;34.42;38.91
63051;SHT30;49136;47.416;19.402;2022-08-04T14:02:33;34.35;36.43
63051;SHT30;49136;47.416;19.402;2022-08-04T14:05:14;34.02;37.67
63051;SHT30;49136;47.416;19.402;2022-08-04T14:07:54;34.33;35.97
63051;SHT30;49136;47.416;19.402;2022-08-04T14:10:21;34.64;38.83
63051;SHT30;49136;47.416;19.402;2022-08-04T14:12:49;34.91;37.44
63051;SHT30;49136;47.416;19.402;2022-08-04T14:15:34;34.68;37.14
63051;SHT30;49136;47.416;19.402;2022-08-04T14:21:09;33.52;36.68
63051;SHT30;49136;47.416;19.402;2022-08-04T14:23:51;33.23;37.95
63051;SHT30;49136;47.416;19.402;2022-08-04T14:26:23;33.15;40.54
63051;SHT30;49136;47.416;19.402;2022-08-04T14:28:49;33.33;36.34
63051;SHT30;49136;47.416;19.402;2022-08-04T14:31:20;33.22;39.95
63051;SHT30;49136;47.416;19.402;2022-08-04T14:33:48;32.94;38.62
63051;SHT30;49136;47.416;19.402;2022-08-04T14:36:14;32.68;39.78
63051;SHT30;49136;47.416;19.402;2022-08-04T14:41:07;32.68;38.54
63051;SHT30;49136;47.416;19.402;2022-08-04T14:43:40;32.84;38.36
63051;SHT30;49136;47.416;19.402;2022-08-04T14:46:06;33.08;37.15
63051;SHT30;49136;47.416;19.402;2022-08-04T14:48:31;33.12;35.82
63051;SHT30;49136;47.416;19.402;2022-08-04T14:50:57;33.21;36.42
63051;SHT30;49136;47.416;19.402;2022-08-04T14:53:24;33.26;35.52
63051;SHT30;49136;47.416;19.402;2022-08-04T14:55:59;33.47;39.23
63051;SHT30;49136;47.416;19.402;2022-08-04T14:58:29;33.45;37.14
63051;SHT30;49136;47.416;19.402;2022-08-04T15:00:57;33.61;37.73
63051;SHT30;49136;47.416;19.402;2022-08-04T15:03:23;33.59;37.43
63051;SHT30;49136;47.416;19.402;2022-08-04T15:05:50;33.67;39.97
63051;SHT30;49136;47.416;19.402;2022-08-04T15:08:15;33.91;39.26
63051;SHT30;49136;47.416;19.402;2022-08-04T15:10:42;34.20;37.45
63051;SHT30;49136;47.416;19.402;2022-08-04T15:13:09;34.47;38.37
63051;SHT30;49136;47.416;19.402;2022-08-04T15:15:37;34.49;37.64
63051;SHT30;49136;47.416;19.402;2022-08-04T15:18:09;34.47;37.01
63051;SHT30;49136;47.416;19.402;2022-08-04T15:20:37;34.44;38.98
63051;SHT30;49136;47.416;19.402;2022-08-04T15:23:03;34.31;37.47
63051;SHT30;49136;47.416;19.402;2022-08-04T15:25:38;34.25;36.69
63051;SHT30;49136;47.416;19.402;2022-08-04T15:28:06;34.42;35.95
63051;SHT30;49136;47.416;19.402;2022-08-04T15:30:36;34.36;35.86
63051;SHT30;49136;47.416;19.402;2022-08-04T15:33:03;34.15;37.83
63051;SHT30;49136;47.416;19.402;2022-08-04T15:35:30;34.12;37.25
63051;SHT30;49136;47.416;19.402;2022-08-04T15:45:50;33.77;38.66
63051;SHT30;49136;47.416;19.402;2022-08-04T15:53:23;33.08;39.16
63051;SHT30;49136;47.416;19.402;2022-08-04T15:55:49;33.04;37.68
63051;SHT30;49136;47.416;19.402;2022-08-04T15:58:16;33.07;38.69
63051;SHT30;49136;47.416;19.402;2022-08-04T16:05:58;32.68;39.11
63051;SHT30;49136;47.416;19.402;2022-08-04T16:08:24;32.61;38.13
63051;SHT30;49136;47.416;19.402;2022-08-04T16:10:50;32.42;40.25
63051;SHT30;49136;47.416;19.402;2022-08-04T16:13:21;32.31;40.89
63051;SHT30;49136;47.416;19.402;2022-08-04T16:20:45;32.40;37.90
63051;SHT30;49136;47.416;19.402;2022-08-04T16:25:51;32.18;40.58
63051;SHT30;49136;47.416;19.402;2022-08-04T16:28:36;32.12;40.92
63051;SHT30;49136;47.416;19.402;2022-08-04T16:31:04;31.90;40.09
63051;SHT30;49136;47.416;19.402;2022-08-04T16:33:30;31.70;41.95
63051;SHT30;49136;47.416;19.402;2022-08-04T16:35:56;31.54;42.11
63051;SHT30;49136;47.416;19.402;2022-08-04T16:38:23;31.53;39.87
63051;SHT30;49136;47.416;19.402;2022-08-04T16:40:54;31.56;38.54
63051;SHT30;49136;47.416;19.402;2022-08-04T16:43:21;31.29;40.82
63051;SHT30;49136;47.416;19.402;2022-08-04T16:45:53;31.22;40.57
63051;SHT30;49136;47.416;19.402;2022-08-04T16:48:31;31.07;41.15
63051;SHT30;49136;47.416;19.402;2022-08-04T16:51:04;30.94;42.00
63051;SHT30;49136;47.416;19.402;2022-08-04T16:53:44;30.86;40.65
63051;SHT30;49136;47.416;19.402;2022-08-04T16:56:10;30.76;41.80
63051;SHT30;49136;47.416;19.402;2022-08-04T16:58:36;30.66;42.86
63051;SHT30;49136;47.416;19.402;2022-08-04T17:01:10;30.57;41.60
63051;SHT30;49136;47.416;19.402;2022-08-04T17:03:37;30.48;42.38
63051;SHT30;49136;47.416;19.402;2022-08-04T17:06:06;30.38;41.90
63051;SHT30;49136;47.416;19.402;2022-08-04T17:08:32;30.22;42.41
63051;SHT30;49136;47.416;19.402;2022-08-04T17:10:59;30.18;42.20
63051;SHT30;49136;47.416;19.402;2022-08-04T17:13:35;30.10;41.98
63051;SHT30;49136;47.416;19.402;2022-08-04T17:16:03;30.01;42.63
63051;SHT30;49136;47.416;19.402;2022-08-04T17:18:37;29.91;42.21
63051;SHT30;49136;47.416;19.402;2022-08-04T17:23:41;29.69;44.35
63051;SHT30;49136;47.416;19.402;2022-08-04T17:26:16;29.46;44.98
63051;SHT30;49136;47.416;19.402;2022-08-04T17:28:45;29.28;43.73
63051;SHT30;49136;47.416;19.402;2022-08-04T17:31:11;29.04;45.68
63051;SHT30;49136;47.416;19.402;2022-08-04T17:33:45;28.86;45.91
63051;SHT30;49136;47.416;19.402;2022-08-04T17:36:11;28.63;47.25
63051;SHT30;49136;47.416;19.402;2022-08-04T17:38:37;28.44;47.56
63051;SHT30;49136;47.416;19.402;2022-08-04T17:41:05;28.27;48.80
63051;SHT30;49136;47.416;19.402;2022-08-04T17:46:34;27.84;49.39
63051;SHT30;49136;47.416;19.402;2022-08-04T17:54:00;27.17;51.66
63051;SHT30;49136;47.416;19.402;2022-08-04T17:56:31;26.96;53.83
63051;SHT30;49136;47.416;19.402;2022-08-04T17:59:07;26.75;54.60
63051;SHT30;49136;47.416;19.402;2022-08-04T18:01:50;26.55;55.42
63051;SHT30;49136;47.416;19.402;2022-08-04T18:07:11;26.17;55.14
63051;SHT30;49136;47.416;19.402;2022-08-04T18:09:48;26.03;55.25
63051;SHT30;49136;47.416;19.402;2022-08-04T18:12:30;25.93;55.72
63051;SHT30;49136;47.416;19.402;2022-08-04T18:14:56;25.77;56.45
63051;SHT30;49136;47.416;19.402;2022-08-04T18:17:43;25.66;56.47
63051;SHT30;49136;47.416;19.402;2022-08-04T18:20:16;25.54;56.97
63051;SHT30;49136;47.416;19.402;2022-08-04T18:22:47;25.41;58.24
63051;SHT30;49136;47.416;19.402;2022-08-04T18:25:18;25.27;59.53
63051;SHT30;49136;47.416;19.402;2022-08-04T18:27:52;25.12;59.30
63051;SHT30;49136;47.416;19.402;2022-08-04T18:30:18;24.94;60.35
63051;SHT30;49136;47.416;19.402;2022-08-04T18:32:43;24.88;59.05
63051;SHT30;49136;47.416;19.402;2022-08-04T18:35:09;25.02;57.92
63051;SHT30;49136;47.416;19.402;2022-08-04T18:37:38;25.16;56.11
63051;SHT30;49136;47.416;19.402;2022-08-04T18:40:05;25.04;55.95
63051;SHT30;49136;47.416;19.402;2022-08-04T18:42:31;24.87;57.11
63051;SHT30;49136;47.416;19.402;2022-08-04T18:44:56;24.66;58.96
63051;SHT30;49136;47.416;19.402;2022-08-04T18:47:22;24.49;58.62
63051;SHT30;49136;47.416;19.402;2022-08-04T18:49:52;24.40;57.66
63051;SHT30;49136;47.416;19.402;2022-08-04T18:52:17;24.59;54.99
63051;SHT30;49136;47.416;19.402;2022-08-04T18:54:43;24.77;53.77
63051;SHT30;49136;47.416;19.402;2022-08-04T18:57:09;24.55;55.73
63051;SHT30;49136;47.416;19.402;2022-08-04T18:59:34;24.55;54.59
63051;SHT30;49136;47.416;19.402;2022-08-04T19:02:00;24.47;55.48
63051;SHT30;49136;47.416;19.402;2022-08-04T19:04:25;24.29;56.78
63051;SHT30;49136;47.416;19.402;2022-08-04T19:06:51;24.18;55.97
63051;SHT30;49136;47.416;19.402;2022-08-04T19:09:16;24.23;54.81
63051;SHT30;49136;47.416;19.402;2022-08-04T19:11:42;24.09;55.23
63051;SHT30;49136;47.416;19.402;2022-08-04T19:14:08;24.02;56.41
63051;SHT30;49136;47.416;19.402;2022-08-04T19:16:34;23.94;56.95
63051;SHT30;49136;47.416;19.402;2022-08-04T19:19:02;24.01;54.81
63051;SHT30;49136;47.416;19.402;2022-08-04T19:21:28;23.96;55.54
63051;SHT30;49136;47.416;19.402;2022-08-04T19:23:54;23.88;57.67
63051;SHT30;49136;47.416;19.402;2022-08-04T19:26:20;23.84;57.14
63051;SHT30;49136;47.416;19.402;2022-08-04T19:28:47;23.69;58.27